Time;durP1;ratioP1;P1;durP2;ratioP2;P2;SDS_P1;SDS_P2;PMS_P1;PMS_P2;Temp;Humidity;BMP_temperature;BMP_pressure;BME280_temperature;BME280_humidity;BME280_pressure;Samples;Min_cycle;Max_cycle;Signal;HPM_P1;HPM_P2
2023/08/14 00:00:07;;;;;;;0.80;0.80;;;;;;;17.75;76.75;97346.66;5022079;28;20049;-62
2023/08/14 00:02:34;;;;;;;0.70;0.70;;;;;;;17.64;77.84;97340.34;5022586;28;20064;-62
2023/08/14 00:05:01;;;;;;;0.70;0.70;;;;;;;17.53;78.40;97339.59;5022580;28;20065;-62
2023/08/14 00:07:27;;;;;;;0.75;0.75;;;;;;;17.58;77.71;97336.34;5021842;28;20126;-63
2023/08/14 00:09:54;;;;;;;0.70;0.70;;;;;;;17.51;78.03;97342.81;5022020;28;20527;-60
2023/08/14 00:12:22;;;;;;;0.80;0.80;;;;;;;17.39;78.60;97345.22;5021791;28;20053;-62
2023/08/14 00:14:48;;;;;;;0.80;0.80;;;;;;;17.40;79.08;97335.63;5022149;28;21130;-61
2023/08/14 00:17:15;;;;;;;0.80;0.80;;;;;;;17.42;78.88;97333.22;5021572;28;20068;-61
2023/08/14 00:19:42;;;;;;;0.70;0.70;;;;;;;17.37;79.16;97336.44;5020690;28;20055;-62
2023/08/14 00:22:08;;;;;;;0.70;0.70;;;;;;;17.28;79.67;97338.88;5021617;28;20454;-61
2023/08/14 00:24:35;;;;;;;0.70;0.70;;;;;;;17.21;79.97;97333.31;5021727;28;20052;-61
2023/08/14 00:27:02;;;;;;;0.70;0.70;;;;;;;16.94;80.37;97307.84;5021461;28;20055;-62
2023/08/14 00:29:28;;;;;;;0.70;0.70;;;;;;;17.13;80.61;97338.16;5020369;28;20246;-62
2023/08/14 00:31:55;;;;;;;0.70;0.70;;;;;;;16.99;81.49;97337.41;5036689;28;20167;-61
2023/08/14 00:34:22;;;;;;;0.70;0.70;;;;;;;17.04;81.38;97346.16;5022088;28;20054;-62
2023/08/14 00:36:48;;;;;;;0.80;0.80;;;;;;;17.09;80.83;97342.13;5021408;28;20519;-61
2023/08/14 00:39:15;;;;;;;0.80;0.80;;;;;;;17.19;80.40;97349.72;5022014;28;20049;-61
2023/08/14 00:41:42;;;;;;;0.70;0.70;;;;;;;17.22;80.05;97340.50;5021796;28;20052;-62
2023/08/14 00:44:09;;;;;;;0.70;0.70;;;;;;;17.16;80.54;97342.13;5022376;28;20046;-61
2023/08/14 00:46:35;;;;;;;0.70;0.70;;;;;;;16.91;80.32;97313.44;5022087;28;20053;-61
2023/08/14 00:49:02;;;;;;;0.70;0.70;;;;;;;17.06;80.41;97328.97;5021554;28;20056;-62
2023/08/14 00:51:30;;;;;;;0.70;0.70;;;;;;;16.85;80.93;97304.66;5021318;28;20053;-61
2023/08/14 00:53:56;;;;;;;0.80;0.80;;;;;;;17.24;81.03;97346.50;5022040;28;20053;-61
2023/08/14 00:56:23;;;;;;;0.70;0.70;;;;;;;17.24;81.17;97338.09;5021653;28;20507;-62
2023/08/14 00:58:50;;;;;;;0.70;0.70;;;;;;;17.35;80.43;97350.03;5021902;28;20053;-62
2023/08/14 01:01:18;;;;;;;0.73;0.73;;;;;;;17.31;80.14;97333.25;5021497;28;20067;-62
2023/08/14 01:03:44;;;;;;;0.70;0.70;;;;;;;17.31;79.66;97338.09;5021014;28;20065;-61
2023/08/14 01:06:11;;;;;;;0.77;0.77;;;;;;;17.30;79.07;97333.66;5025490;28;20053;-62
2023/08/14 01:08:38;;;;;;;0.80;0.80;;;;;;;16.88;79.41;97281.47;5024886;28;20056;-62
2023/08/14 01:11:12;;;;;;;0.80;0.80;;;;;;;17.24;79.16;97338.91;5025107;28;20087;-63
2023/08/14 01:14:27;;;;;;;0.80;0.80;;;;;;;17.19;80.13;97330.13;5025433;28;20133;-63
2023/08/14 01:16:59;;;;;;;0.77;0.77;;;;;;;17.07;81.23;97322.97;5024407;28;20095;-61
2023/08/14 01:19:31;;;;;;;0.70;0.70;;;;;;;17.17;81.11;97321.31;5040896;28;20473;-61
2023/08/14 01:22:27;;;;;;;0.70;0.70;;;;;;;17.21;80.24;97316.50;5025529;28;20111;-61
2023/08/14 01:25:19;;;;;;;0.70;0.70;;;;;;;17.19;80.85;97324.50;5016591;28;20431;-62
2023/08/14 01:27:47;;;;;;;0.70;0.70;;;;;;;17.13;80.98;97331.75;5005140;28;20139;-61
2023/08/14 01:30:13;;;;;;;0.70;0.70;;;;;;;17.11;81.34;97323.75;5004804;28;20054;-62
2023/08/14 01:32:40;;;;;;;0.70;0.70;;;;;;;17.18;80.29;97328.53;5002626;28;20053;-61
2023/08/14 01:35:07;;;;;;;0.80;0.80;;;;;;;16.85;80.49;97276.66;5004941;28;20533;-61
2023/08/14 01:37:49;;;;;;;0.70;0.70;;;;;;;17.10;80.32;97333.38;5004321;28;20492;-61
2023/08/14 01:40:35;;;;;;;0.73;0.73;;;;;;;17.04;81.28;97326.56;5004208;28;20050;-61
2023/08/14 01:43:13;;;;;;;0.70;0.70;;;;;;;16.70;81.57;97279.91;5004081;28;20058;-64
2023/08/14 01:45:41;;;;;;;0.70;0.70;;;;;;;16.82;81.53;97315.88;5004034;28;20058;-62
2023/08/14 01:48:09;;;;;;;0.70;0.70;;;;;;;16.82;81.71;97299.09;5004111;28;20065;-62
2023/08/14 01:50:38;;;;;;;0.70;0.70;;;;;;;16.82;82.41;97324.25;5005064;28;20058;-62
2023/08/14 01:53:06;;;;;;;0.70;0.70;;;;;;;16.74;82.91;97325.50;5005622;28;20140;-61
2023/08/14 01:55:33;;;;;;;0.63;0.63;;;;;;;16.60;84.08;97332.69;5005722;28;20056;-62
2023/08/14 01:58:00;;;;;;;0.77;0.77;;;;;;;16.68;83.31;97321.50;5005060;28;20050;-61
2023/08/14 02:00:29;;;;;;;0.70;0.70;;;;;;;16.59;83.48;97319.94;5005095;28;20119;-62
2023/08/14 02:02:57;;;;;;;0.60;0.60;;;;;;;16.50;83.72;97316.72;5013449;28;20128;-63
2023/08/14 02:05:24;;;;;;;0.70;0.70;;;;;;;16.16;84.92;97282.00;5025020;28;20063;-63
2023/08/14 02:07:50;;;;;;;0.70;0.70;;;;;;;16.55;84.09;97319.13;5025164;28;20060;-61
2023/08/14 02:10:17;;;;;;;0.70;0.70;;;;;;;16.52;83.50;97319.94;5024997;28;20053;-61
2023/08/14 02:12:44;;;;;;;0.65;0.65;;;;;;;16.48;83.45;97307.97;5025039;28;20119;-62
2023/08/14 02:15:11;;;;;;;0.70;0.70;;;;;;;16.43;83.13;97301.94;5023871;28;20133;-61
2023/08/14 02:17:37;;;;;;;0.60;0.60;;;;;;;16.44;83.39;97298.75;5024152;28;20061;-62
2023/08/14 02:20:05;;;;;;;0.70;0.70;;;;;;;16.37;84.16;97301.56;5023796;28;20162;-62
2023/08/14 02:22:31;;;;;;;0.65;0.65;;;;;;;16.37;84.81;97300.75;5023532;28;20164;-62
2023/08/14 02:24:58;;;;;;;0.70;0.70;;;;;;;16.43;84.79;97302.75;5024853;28;20056;-61
2023/08/14 02:27:25;;;;;;;0.70;0.70;;;;;;;16.29;85.82;97299.97;5023051;28;20134;-62
2023/08/14 02:29:51;;;;;;;0.70;0.70;;;;;;;16.41;85.07;97299.53;5024216;28;20052;-62
2023/08/14 02:32:18;;;;;;;0.70;0.70;;;;;;;16.27;85.84;97302.38;5023823;28;20045;-62
2023/08/14 02:34:50;;;;;;;0.70;0.70;;;;;;;16.26;85.87;97303.56;5023330;28;20475;-61
2023/08/14 02:37:17;;;;;;;0.63;0.63;;;;;;;16.32;85.71;97301.97;5023384;28;20046;-61
2023/08/14 02:39:45;;;;;;;0.80;0.80;;;;;;;16.37;85.18;97307.16;5023588;28;20137;-61
2023/08/14 02:42:16;;;;;;;0.70;0.70;;;;;;;16.41;85.25;97305.13;5023827;28;20041;-63
2023/08/14 02:44:43;;;;;;;0.80;0.80;;;;;;;16.41;85.19;97310.72;5017383;28;20046;-62
2023/08/14 02:47:10;;;;;;;0.63;0.63;;;;;;;16.14;85.16;97258.44;5003599;28;20432;-62
2023/08/14 02:49:37;;;;;;;0.70;0.70;;;;;;;16.33;84.46;97278.38;5003789;28;20046;-61
2023/08/14 02:52:04;;;;;;;0.70;0.70;;;;;;;16.31;84.17;97252.81;5001747;28;20049;-61
2023/08/14 02:54:30;;;;;;;0.70;0.70;;;;;;;16.63;83.80;97296.75;5003471;28;20728;-63
2023/08/14 02:56:57;;;;;;;0.70;0.70;;;;;;;16.61;84.05;97291.56;5003410;28;20056;-61
2023/08/14 02:59:24;;;;;;;0.70;0.70;;;;;;;16.63;84.10;97302.34;5003338;28;20058;-62
2023/08/14 03:01:51;;;;;;;0.70;0.70;;;;;;;16.59;84.17;97299.53;5001903;28;20054;-61
2023/08/14 03:04:18;;;;;;;0.73;0.73;;;;;;;16.60;83.62;97304.72;5022091;28;20046;-64
2023/08/14 03:06:44;;;;;;;0.70;0.70;;;;;;;16.66;83.23;97293.13;5022845;28;20053;-61
2023/08/14 03:09:11;;;;;;;0.70;0.70;;;;;;;16.63;83.32;97303.91;5022743;28;20049;-61
2023/08/14 03:11:38;;;;;;;0.70;0.70;;;;;;;16.38;82.67;97264.00;5022480;28;20057;-62
2023/08/14 03:14:05;;;;;;;0.70;0.70;;;;;;;16.18;83.12;97240.47;5023508;28;20069;-62
2023/08/14 03:16:32;;;;;;;0.70;0.70;;;;;;;14.41;82.89;96949.88;5021711;28;20057;-62
2023/08/14 03:18:58;;;;;;;0.70;0.70;;;;;;;16.48;83.42;97285.59;5038153;28;20057;-61
2023/08/14 03:21:25;;;;;;;0.70;0.70;;;;;;;16.37;82.71;97256.81;5022776;28;20184;-62
2023/08/14 03:23:52;;;;;;;0.70;0.70;;;;;;;16.69;82.18;97300.72;5023100;28;20076;-61
2023/08/14 03:26:19;;;;;;;0.70;0.70;;;;;;;16.13;83.87;97260.44;5022634;28;20056;-62
2023/08/14 03:28:45;;;;;;;0.60;0.60;;;;;;;15.99;85.92;97302.38;5023074;28;20081;-61
2023/08/14 03:31:13;;;;;;;0.63;0.63;;;;;;;15.97;86.33;97307.56;5021532;28;20050;-62
2023/08/14 03:33:39;;;;;;;0.60;0.60;;;;;;;16.07;85.99;97303.97;5020921;28;20060;-62
2023/08/14 03:36:06;;;;;;;0.60;0.60;;;;;;;16.15;85.46;97310.34;5022985;28;20144;-61
2023/08/14 03:38:33;;;;;;;0.70;0.70;;;;;;;15.96;85.02;97261.28;5021283;28;20053;-62
2023/08/14 03:40:59;;;;;;;0.70;0.70;;;;;;;16.36;84.84;97313.94;5037674;28;20050;-62
2023/08/14 03:43:26;;;;;;;0.65;0.65;;;;;;;16.43;84.67;97315.91;5021034;28;20055;-61
2023/08/14 03:45:53;;;;;;;0.70;0.70;;;;;;;16.46;84.11;97307.56;5022717;28;20225;-61
2023/08/14 03:48:19;;;;;;;0.80;0.80;;;;;;;16.25;84.01;97265.63;5020973;28;20135;-62
2023/08/14 03:50:46;;;;;;;0.70;0.70;;;;;;;16.57;84.00;97315.91;5022755;28;20060;-62
2023/08/14 03:53:13;;;;;;;0.70;0.70;;;;;;;15.94;83.11;97205.00;5021078;28;20146;-62
2023/08/14 03:55:40;;;;;;;0.70;0.70;;;;;;;16.41;82.22;97262.38;5022179;28;20064;-62
2023/08/14 03:58:07;;;;;;;0.73;0.73;;;;;;;16.53;81.59;97273.97;5022515;28;20727;-61
2023/08/14 04:00:34;;;;;;;0.70;0.70;;;;;;;16.89;81.51;97311.03;5020742;28;20538;-61
2023/08/14 04:03:01;;;;;;;0.73;0.73;;;;;;;16.90;81.52;97328.66;5022037;28;20042;-61
2023/08/14 04:05:28;;;;;;;0.73;0.73;;;;;;;16.97;80.96;97318.22;5021408;28;20055;-61
2023/08/14 04:07:55;;;;;;;0.70;0.70;;;;;;;16.98;81.30;97324.59;5021234;28;20554;-61
2023/08/14 04:10:24;;;;;;;0.70;0.70;;;;;;;16.87;80.96;97290.25;5019882;28;20440;-61
2023/08/14 04:12:50;;;;;;;0.73;0.73;;;;;;;17.10;80.50;97321.38;5021148;28;20049;-63
2023/08/14 04:15:17;;;;;;;0.70;0.70;;;;;;;17.06;80.45;97326.16;5021505;28;20057;-62
2023/08/14 04:17:44;;;;;;;0.80;0.80;;;;;;;17.14;79.90;97333.31;5022362;28;20057;-64
2023/08/14 04:20:12;;;;;;;0.75;0.75;;;;;;;17.13;80.02;97342.94;5022315;28;20072;-64
2023/08/14 04:22:39;;;;;;;0.80;0.80;;;;;;;17.22;79.69;97329.28;5021860;28;20057;-62
2023/08/14 04:25:05;;;;;;;0.70;0.70;;;;;;;17.36;79.18;97337.63;5020159;28;20069;-61
2023/08/14 04:27:37;;;;;;;0.77;0.77;;;;;;;17.44;78.79;97342.00;5022023;28;20104;-61
2023/08/14 04:30:05;;;;;;;0.70;0.70;;;;;;;17.65;77.82;97339.13;5020355;28;20081;-61
2023/08/14 04:32:33;;;;;;;0.70;0.70;;;;;;;17.77;77.47;97338.63;5021300;28;20068;-61
2023/08/14 04:35:00;;;;;;;0.70;0.70;;;;;;;17.85;77.29;97345.78;5021606;28;20535;-61
2023/08/14 04:37:27;;;;;;;0.80;0.80;;;;;;;18.01;76.86;97348.88;5021681;28;20119;-61
2023/08/14 04:39:53;;;;;;;0.75;0.75;;;;;;;18.09;76.57;97347.63;5019865;28;20531;-61
2023/08/14 04:42:20;;;;;;;0.70;0.70;;;;;;;18.35;75.90;97347.03;5022125;28;20057;-61
2023/08/14 04:44:47;;;;;;;0.70;0.70;;;;;;;18.28;75.02;97338.66;5022561;28;20056;-62
2023/08/14 04:47:13;;;;;;;0.80;0.80;;;;;;;18.36;74.13;97312.16;5020543;28;20504;-61
2023/08/14 04:49:40;;;;;;;0.90;0.90;;;;;;;18.44;73.44;97310.91;5020352;28;20041;-61
2023/08/14 04:52:07;;;;;;;0.80;0.80;;;;;;;18.94;72.59;97361.69;5019990;28;20061;-62
2023/08/14 04:54:34;;;;;;;0.80;0.80;;;;;;;19.02;72.64;97358.41;5020271;28;20154;-61
2023/08/14 04:57:01;;;;;;;0.80;0.80;;;;;;;19.17;72.16;97371.06;5021771;28;20057;-60
2023/08/14 04:59:28;;;;;;;0.80;0.80;;;;;;;19.34;71.57;97372.91;5021995;28;20076;-61
2023/08/14 05:01:55;;;;;;;0.90;0.90;;;;;;;19.47;71.01;97362.69;5019496;28;20050;-60
2023/08/14 05:04:23;;;;;;;0.80;0.80;;;;;;;19.65;70.87;97364.50;5022229;28;20065;-60
2023/08/14 05:06:51;;;;;;;0.80;0.80;;;;;;;19.79;71.21;97372.75;5021663;28;20049;-62
2023/08/14 05:09:18;;;;;;;0.80;0.80;;;;;;;19.88;71.73;97364.56;5022591;28;20054;-61
2023/08/14 05:11:53;;;;;;;0.90;0.90;;;;;;;20.17;70.59;97365.78;5022052;28;20425;-61
2023/08/14 05:14:20;;;;;;;0.90;0.90;;;;;;;20.21;70.70;97372.13;5020799;28;20132;-61
2023/08/14 05:16:47;;;;;;;0.90;0.90;;;;;;;20.44;70.53;97374.97;5021732;28;20137;-61
2023/08/14 05:19:14;;;;;;;0.80;0.80;;;;;;;20.11;70.71;97299.91;5019587;28;20056;-62
2023/08/14 05:21:41;;;;;;;0.88;0.88;;;;;;;20.13;70.46;97332.03;5036115;28;20439;-61
2023/08/14 05:24:09;;;;;;;0.93;0.93;;;;;;;20.59;69.86;97370.72;5020931;28;20054;-60
2023/08/14 05:26:36;;;;;;;0.80;0.80;;;;;;;20.62;69.62;97415.69;5020780;28;20056;-60
2023/08/14 05:29:03;;;;;;;0.80;0.80;;;;;;;20.80;68.73;97353.44;5020948;28;20081;-61
2023/08/14 05:31:30;;;;;;;0.90;0.90;;;;;;;20.99;68.46;97366.81;5019476;28;20053;-63
2023/08/14 05:33:56;;;;;;;0.80;0.80;;;;;;;20.75;67.57;97300.44;5020608;28;20055;-62
2023/08/14 05:36:23;;;;;;;0.82;0.82;;;;;;;21.44;66.82;97370.75;5020706;28;20052;-62
2023/08/14 05:38:50;;;;;;;0.80;0.80;;;;;;;21.44;65.89;97334.09;5020927;28;20158;-63
2023/08/14 05:41:18;;;;;;;0.90;0.90;;;;;;;21.89;65.45;97363.34;5020405;28;20095;-61
2023/08/14 05:43:45;;;;;;;0.80;0.80;;;;;;;21.97;65.43;97359.13;5035493;28;20051;-62
2023/08/14 05:46:12;;;;;;;0.90;0.90;;;;;;;21.69;65.00;97280.78;5028467;28;20144;-69
2023/08/14 05:48:38;;;;;;;0.90;0.90;;;;;;;22.56;64.01;97361.00;5016413;28;20037;-71
2023/08/14 05:51:05;;;;;;;0.90;0.90;;;;;;;22.20;62.62;97242.47;5028536;28;20052;-73
2023/08/14 05:53:32;;;;;;;1.00;1.00;;;;;;;23.07;60.73;97338.22;5037724;28;20045;-63
2023/08/14 05:55:58;;;;;;;1.00;1.00;;;;;;;23.38;58.89;97369.69;5027373;28;20770;-62
2023/08/14 05:58:25;;;;;;;0.90;0.90;;;;;;;23.07;56.08;97314.81;5020169;28;20053;-66
2023/08/14 06:00:52;;;;;;;1.10;1.10;;;;;;;23.46;56.17;97306.03;5041559;28;20447;-68
2023/08/14 06:03:19;;;;;;;1.13;1.13;;;;;;;23.97;55.51;97361.50;5023046;28;20060;-70
2023/08/14 06:06:04;;;;;;;1.10;1.10;;;;;;;23.64;54.39;97258.22;5018202;28;20047;-68
2023/08/14 06:08:31;;;;;;;1.15;1.15;;;;;;;24.45;53.34;97358.38;5025085;28;20053;-62
2023/08/14 06:10:58;;;;;;;1.10;1.10;;;;;;;24.81;52.74;97355.97;5020432;28;20685;-59
2023/08/14 06:13:25;;;;;;;1.33;1.33;;;;;;;24.55;50.47;97286.38;5021632;28;20132;-67
2023/08/14 06:15:52;;;;;;;1.10;1.10;;;;;;;24.61;49.35;97290.22;5020612;28;20045;-63
2023/08/14 06:18:18;;;;;;;1.10;1.10;;;;;;;24.49;49.47;97271.22;5017242;28;20045;-64
2023/08/14 06:20:45;;;;;;;1.10;1.10;;;;;;;25.27;50.03;97366.50;5021724;28;20052;-59
2023/08/14 06:23:12;;;;;;;1.30;1.30;;;;;;;24.52;50.47;97241.97;5026408;28;20841;-63
2023/08/14 06:25:38;;;;;;;1.20;1.20;;;;;;;25.60;48.16;97360.44;5042034;28;20056;-63
2023/08/14 06:28:05;;;;;;;1.38;1.38;;;;;;;24.89;47.76;97221.25;5022758;28;20084;-64
2023/08/14 06:30:32;;;;;;;1.30;1.30;;;;;;;25.57;46.86;97276.25;5019895;28;20063;-61
2023/08/14 06:32:59;;;;;;;1.50;1.50;;;;;;;25.76;46.58;97307.13;5022661;28;20772;-61
2023/08/14 06:35:25;;;;;;;1.35;1.35;;;;;;;25.54;47.15;97367.97;5019429;28;20054;-65
2023/08/14 06:37:52;;;;;;;1.27;1.27;;;;;;;25.57;48.20;97327.31;5020749;28;20060;-63
2023/08/14 06:40:19;;;;;;;1.38;1.38;;;;;;;25.30;47.00;97322.22;5018878;28;20049;-63
2023/08/14 06:42:46;;;;;;;1.20;1.20;;;;;;;25.23;47.41;97269.38;5019449;28;20057;-64
2023/08/14 06:45:12;;;;;;;1.10;1.10;;;;;;;25.77;46.37;97354.09;5020524;28;20670;-60
2023/08/14 06:47:44;;;;;;;1.20;1.20;;;;;;;25.82;47.17;97361.22;5017135;28;20054;-66
2023/08/14 06:50:12;;;;;;;1.17;1.17;;;;;;;25.25;46.45;97271.75;5028400;28;20057;-68
2023/08/14 06:52:40;;;;;;;1.38;1.38;;;;;;;25.13;45.53;97290.41;5023550;28;20261;-71
2023/08/14 06:55:07;;;;;;;1.40;1.40;;;;;;;25.35;46.86;97298.16;5033616;28;20512;-71
2023/08/14 06:57:34;;;;;;;1.40;1.40;;;;;;;26.14;46.28;97355.94;5020785;28;20080;-60
2023/08/14 07:00:11;;;;;;;1.30;1.30;;;;;;;25.51;45.93;97175.97;5022015;28;20053;-65
2023/08/14 07:02:39;;;;;;;1.40;1.40;;;;;;;26.50;44.67;97350.41;5025781;28;20099;-62
2023/08/14 07:05:12;;;;;;;1.40;1.40;;;;;;;26.43;43.46;97355.59;5029175;28;20049;-61
2023/08/14 07:07:54;;;;;;;1.30;1.30;;;;;;;26.77;43.50;97335.53;5018469;28;20064;-63
2023/08/14 07:10:36;;;;;;;1.40;1.40;;;;;;;27.14;42.09;97320.06;4989289;28;20120;-69
2023/08/14 07:13:22;;;;;;;1.58;1.58;;;;;;;27.15;40.77;97327.34;5017386;28;20128;-62
2023/08/14 07:15:48;;;;;;;1.50;1.50;;;;;;;26.64;40.97;97213.41;5020494;28;20081;-63
2023/08/14 07:18:20;;;;;;;1.70;1.70;;;;;;;27.55;41.13;97310.91;5019470;28;20497;-69
2023/08/14 07:20:47;;;;;;;1.60;1.60;;;;;;;27.95;40.28;97348.53;5021779;28;20579;-64
2023/08/14 07:23:19;;;;;;;1.50;1.50;;;;;;;27.64;38.26;97285.28;5020846;28;20435;-65
2023/08/14 07:25:46;;;;;;;1.65;1.65;;;;;;;28.02;39.08;97345.34;5001802;28;20149;-60
2023/08/14 07:28:13;;;;;;;1.40;1.40;;;;;;;27.89;39.64;97319.13;5001932;28;20061;-60
2023/08/14 07:30:40;;;;;;;1.70;1.70;;;;;;;27.48;38.15;97248.63;5013116;28;20103;-62
2023/08/14 07:33:07;;;;;;;1.40;1.40;;;;;;;27.57;38.79;97319.78;5036143;28;20991;-65
2023/08/14 07:35:34;;;;;;;1.50;1.50;;;;;;;28.31;37.76;97346.84;5024988;28;20050;-62
2023/08/14 07:38:01;;;;;;;1.65;1.65;;;;;;;28.01;38.47;97320.97;5040185;28;20518;-65
2023/08/14 07:40:28;;;;;;;1.60;1.60;;;;;;;28.03;37.95;97340.44;5017205;28;20071;-68
2023/08/14 07:42:55;;;;;;;1.50;1.50;;;;;;;26.80;39.23;97306.13;5049523;28;20055;-68
2023/08/14 07:45:22;;;;;;;1.48;1.48;;;;;;;27.12;39.23;97310.44;5026532;28;20041;-66
2023/08/14 07:47:49;;;;;;;1.50;1.50;;;;;;;27.20;38.57;97258.44;5036890;28;20420;-61
2023/08/14 07:50:16;;;;;;;1.50;1.50;;;;;;;26.75;39.35;97181.66;5019684;28;20054;-66
2023/08/14 07:52:43;;;;;;;1.38;1.38;;;;;;;26.07;39.10;97066.56;5020439;28;20057;-66
2023/08/14 07:55:10;;;;;;;1.50;1.50;;;;;;;27.62;38.98;97304.91;5020531;28;20050;-63
2023/08/14 07:57:36;;;;;;;1.60;1.60;;;;;;;27.50;38.10;97243.25;5021426;28;20053;-63
2023/08/14 08:00:07;;;;;;;1.77;1.77;;;;;;;28.33;37.52;97290.16;5019631;28;20053;-67
2023/08/14 08:02:33;;;;;;;1.75;1.75;;;;;;;28.20;37.86;97263.94;5019709;28;20134;-66
2023/08/14 08:05:01;;;;;;;1.50;1.50;;;;;;;28.95;37.81;97319.59;5019171;28;20832;-62
2023/08/14 08:07:28;;;;;;;1.67;1.67;;;;;;;27.94;38.35;97235.88;5019838;28;20053;-66
2023/08/14 08:10:01;;;;;;;1.60;1.60;;;;;;;28.22;38.49;97256.47;5021417;28;20053;-66
2023/08/14 08:12:28;;;;;;;1.77;1.77;;;;;;;27.86;38.42;97271.63;5020517;28;20720;-63
2023/08/14 08:14:55;;;;;;;1.42;1.42;;;;;;;27.95;37.73;97248.84;5022379;28;20059;-63
2023/08/14 08:17:21;;;;;;;1.52;1.52;;;;;;;28.50;37.64;97328.44;5037019;28;20096;-65
2023/08/14 08:19:48;;;;;;;1.90;1.90;;;;;;;28.09;37.00;97211.09;5032717;28;20527;-63
2023/08/14 08:22:15;;;;;;;1.70;1.70;;;;;;;28.52;37.87;97325.84;5018682;28;20100;-65
2023/08/14 08:24:42;;;;;;;1.88;1.88;;;;;;;28.56;38.44;97332.19;5021669;28;20392;-63
2023/08/14 08:27:08;;;;;;;1.60;1.60;;;;;;;28.92;38.19;97317.72;5036405;28;20049;-62
2023/08/14 08:29:35;;;;;;;1.65;1.65;;;;;;;28.93;37.65;97314.38;5031406;28;20045;-62
2023/08/14 08:32:02;;;;;;;1.85;1.85;;;;;;;28.50;37.17;97248.59;5024914;28;20064;-65
2023/08/14 08:34:28;;;;;;;1.65;1.65;;;;;;;29.09;37.62;97330.31;5032992;28;20057;-65
2023/08/14 08:38:11;;;;;;;1.67;1.67;;;;;;;28.01;38.52;97337.28;5039401;28;20436;-63
2023/08/14 08:40:39;;;;;;;1.48;1.48;;;;;;;27.90;38.53;97309.28;5036842;28;20130;-61
2023/08/14 08:43:06;;;;;;;1.75;1.75;;;;;;;28.04;38.53;97348.50;5021985;28;20422;-62
2023/08/14 08:45:35;;;;;;;1.63;1.63;;;;;;;28.14;38.61;97284.53;5033085;28;20488;-68
2023/08/14 08:48:05;;;;;;;1.83;1.83;;;;;;;28.09;38.69;97332.81;5035187;28;20053;-65
2023/08/14 08:50:33;;;;;;;1.52;1.52;;;;;;;27.99;39.32;97326.38;5037096;28;20057;-61
2023/08/14 08:52:59;;;;;;;1.77;1.77;;;;;;;28.40;39.06;97307.69;5036285;28;20053;-65
2023/08/14 08:55:26;;;;;;;1.55;1.55;;;;;;;28.67;39.24;97284.78;5037651;28;20049;-63
2023/08/14 08:57:57;;;;;;;1.73;1.73;;;;;;;28.72;38.04;97328.94;5037493;28;20045;-63
2023/08/14 09:00:24;;;;;;;1.52;1.52;;;;;;;28.36;39.25;97329.09;5036226;28;20439;-68
2023/08/14 09:02:51;;;;;;;1.70;1.70;;;;;;;28.77;39.47;97286.28;5035282;28;20567;-65
2023/08/14 09:05:19;;;;;;;1.80;1.80;;;;;;;28.78;39.00;97235.72;5035954;28;20060;-70
2023/08/14 09:07:58;;;;;;;1.85;1.85;;;;;;;28.81;38.44;97297.50;5037567;28;20352;-66
2023/08/14 09:10:25;;;;;;;1.48;1.48;;;;;;;29.14;38.33;97327.56;5037255;28;20053;-66
2023/08/14 09:12:51;;;;;;;1.60;1.60;;;;;;;28.59;39.28;97257.09;5037856;28;20045;-65
2023/08/14 09:15:18;;;;;;;1.67;1.67;;;;;;;28.81;39.53;97326.03;5037490;28;20067;-65
2023/08/14 09:17:49;;;;;;;2.00;2.00;;;;;;;28.57;40.22;97305.25;5036232;28;20465;-66
2023/08/14 09:20:16;;;;;;;1.73;1.73;;;;;;;29.18;39.93;97373.06;5035756;28;20049;-66
2023/08/14 09:22:57;;;;;;;1.70;1.70;;;;;;;27.77;40.83;97223.22;5036664;28;20408;-65
2023/08/14 09:25:25;;;;;;;1.80;1.80;;;;;;;28.20;40.99;97270.41;5036301;28;20617;-66
2023/08/14 09:27:53;;;;;;;1.58;1.58;;;;;;;28.32;40.41;97234.41;5037312;28;20163;-66
2023/08/14 09:30:24;;;;;;;1.77;1.77;;;;;;;28.31;40.05;97302.03;5035173;28;20049;-66
2023/08/14 09:32:50;;;;;;;1.60;1.60;;;;;;;28.36;41.79;97312.75;5037079;28;20090;-65
2023/08/14 09:35:17;;;;;;;1.70;1.70;;;;;;;27.83;42.06;97207.09;5034547;28;20050;-68
2023/08/14 09:37:47;;;;;;;1.65;1.65;;;;;;;28.11;42.24;97210.63;5036062;28;20547;-66
2023/08/14 09:40:16;;;;;;;1.40;1.40;;;;;;;28.17;41.71;97230.72;5035138;28;20140;-65
2023/08/14 09:42:45;;;;;;;1.77;1.77;;;;;;;29.15;41.15;97317.72;5036306;28;20084;-64
2023/08/14 09:45:18;;;;;;;1.70;1.70;;;;;;;29.27;41.58;97319.56;5036415;28;20128;-66
2023/08/14 09:47:46;;;;;;;1.45;1.45;;;;;;;28.52;41.47;97211.81;5027564;28;20081;-66
2023/08/14 09:50:19;;;;;;;1.80;1.80;;;;;;;28.70;42.00;97285.84;5020301;28;20531;-66
2023/08/14 09:52:46;;;;;;;1.80;1.80;;;;;;;29.37;41.50;97328.84;5021931;28;20045;-66
2023/08/14 09:55:14;;;;;;;1.73;1.73;;;;;;;29.19;41.84;97311.84;5021611;28;20051;-61
2023/08/14 09:57:41;;;;;;;1.67;1.67;;;;;;;29.46;41.97;97320.19;5020231;28;20052;-60
2023/08/14 10:00:10;;;;;;;1.90;1.90;;;;;;;28.65;42.67;97317.88;5022284;28;20124;-59
2023/08/14 10:02:38;;;;;;;1.90;1.90;;;;;;;28.86;43.24;97316.81;5019659;28;20268;-61
2023/08/14 10:05:09;;;;;;;1.55;1.55;;;;;;;28.48;42.78;97262.53;5019324;28;20489;-59
2023/08/14 10:07:38;;;;;;;1.70;1.70;;;;;;;28.51;42.37;97158.94;5025645;28;20056;-69
2023/08/14 10:10:08;;;;;;;1.65;1.65;;;;;;;28.54;42.79;97192.19;5031846;28;20059;-67
2023/08/14 10:12:45;;;;;;;1.63;1.63;;;;;;;29.35;42.17;97309.31;5022696;28;20083;-64
2023/08/14 10:15:16;;;;;;;1.58;1.58;;;;;;;28.79;42.08;97174.56;5020832;28;20053;-66
2023/08/14 10:17:49;;;;;;;1.85;1.85;;;;;;;29.32;42.67;97306.66;5022691;28;20115;-62
2023/08/14 10:20:19;;;;;;;1.60;1.60;;;;;;;29.33;41.52;97256.84;5019920;28;20060;-66
2023/08/14 10:22:46;;;;;;;1.80;1.80;;;;;;;29.62;41.51;97291.16;5022604;28;20045;-66
2023/08/14 10:25:14;;;;;;;1.67;1.67;;;;;;;29.93;40.88;97296.41;5021603;28;20053;-62
2023/08/14 10:27:40;;;;;;;1.67;1.67;;;;;;;29.61;41.87;97292.44;5021180;28;20504;-60
2023/08/14 10:30:54;;;;;;;1.80;1.80;;;;;;;29.46;41.54;97303.84;5021146;28;20456;-69
2023/08/14 10:33:21;;;;;;;1.95;1.95;;;;;;;29.61;41.92;97301.00;5022270;28;20441;-60
2023/08/14 10:35:54;;;;;;;1.92;1.92;;;;;;;30.37;41.31;97289.41;5021016;28;20378;-63
2023/08/14 10:38:22;;;;;;;2.00;2.00;;;;;;;30.43;40.55;97298.84;5023172;28;20061;-67
2023/08/14 10:41:04;;;;;;;1.80;1.80;;;;;;;29.47;41.06;97161.84;5018761;28;20053;-63
2023/08/14 10:43:32;;;;;;;1.80;1.80;;;;;;;29.61;41.00;97240.25;5003908;28;20116;-65
2023/08/14 10:46:04;;;;;;;1.80;1.80;;;;;;;30.46;40.61;97297.84;5018108;28;20045;-60
2023/08/14 10:48:38;;;;;;;1.70;1.70;;;;;;;30.37;40.22;97229.34;5021934;28;21685;-64
2023/08/14 10:51:09;;;;;;;1.63;1.63;;;;;;;30.45;40.92;97250.53;5017925;28;20511;-63
2023/08/14 10:53:37;;;;;;;1.83;1.83;;;;;;;29.77;39.94;97129.16;5012135;28;20137;-63
2023/08/14 10:56:05;;;;;;;1.60;1.60;;;;;;;30.59;40.88;97246.81;5022022;28;20049;-62
2023/08/14 10:58:31;;;;;;;1.80;1.80;;;;;;;30.00;41.18;97279.69;5020490;28;20120;-63
2023/08/14 11:01:07;;;;;;;1.80;1.80;;;;;;;29.71;42.63;97284.59;5018944;28;20538;-64
2023/08/14 11:04:04;;;;;;;2.13;2.13;;;;;;;29.91;41.57;97196.13;5009947;28;20144;-60
2023/08/14 11:07:05;;;;;;;2.08;2.08;;;;;;;30.55;40.83;97280.59;5007444;28;20057;-66
2023/08/14 11:09:33;;;;;;;1.92;1.92;;;;;;;30.12;41.47;97281.41;5009687;28;20499;-60
2023/08/14 11:12:08;;;;;;;1.90;1.90;;;;;;;29.38;41.49;97159.13;5020985;28;20049;-62
2023/08/14 11:14:40;;;;;;;2.10;2.10;;;;;;;30.80;41.07;97268.47;5019993;28;20050;-59
2023/08/14 11:17:09;;;;;;;1.70;1.70;;;;;;;30.00;41.40;97233.94;5004153;28;20062;-63
2023/08/14 11:19:37;;;;;;;1.83;1.83;;;;;;;30.44;41.20;97228.94;5007423;28;20136;-65
2023/08/14 11:22:05;;;;;;;1.95;1.95;;;;;;;30.78;41.07;97235.91;5003670;28;20134;-72
2023/08/14 11:24:36;;;;;;;2.03;2.03;;;;;;;31.27;40.73;97267.25;5017333;28;20057;-68
2023/08/14 11:27:05;;;;;;;1.90;1.90;;;;;;;30.81;40.43;97257.81;5018287;28;20596;-75
2023/08/14 11:29:32;;;;;;;1.85;1.85;;;;;;;29.47;41.42;97070.50;5007876;28;20504;-63
2023/08/14 11:32:00;;;;;;;1.80;1.80;;;;;;;30.11;41.93;97247.63;5017676;28;20507;-61
2023/08/14 11:34:27;;;;;;;1.70;1.70;;;;;;;28.94;43.28;97181.09;5000882;28;20052;-68
2023/08/14 11:37:04;;;;;;;1.80;1.80;;;;;;;29.39;42.93;97195.72;5012692;28;20062;-74
2023/08/14 11:39:34;;;;;;;1.80;1.80;;;;;;;28.96;43.75;97164.28;5011688;28;20049;-72
2023/08/14 11:42:03;;;;;;;1.70;1.70;;;;;;;29.80;43.30;97253.84;5018629;28;20065;-62